Time;durP1;ratioP1;P1;durP2;ratioP2;P2;SDS_P1;SDS_P2;PMS_P1;PMS_P2;Temp;Humidity;BMP_temperature;BMP_pressure;BME280_temperature;BME280_humidity;BME280_pressure;Samples;Min_cycle;Max_cycle;Signal;HPM_P1;HPM_P2
2021/03/31 00:01:29;;;;;;;30.23;16.20;;;14.10;65.30;;;;;;5037083;28;20036;-81
2021/03/31 00:03:55;;;;;;;28.58;15.20;;;14.10;65.70;;;;;;5071647;28;20032;-79
2021/03/31 00:06:20;;;;;;;26.83;15.15;;;14.10;65.40;;;;;;5071506;28;20492;-80
2021/03/31 00:08:46;;;;;;;23.75;13.95;;;14.00;65.60;;;;;;5052724;28;20043;-80
2021/03/31 00:11:12;;;;;;;25.58;14.82;;;14.00;66.00;;;;;;5052969;28;20017;-79
2021/03/31 00:13:38;;;;;;;25.80;13.75;;;14.00;66.00;;;;;;5070745;28;20046;-80
2021/03/31 00:16:04;;;;;;;25.25;14.75;;;13.90;65.90;;;;;;5071977;28;20028;-79
2021/03/31 00:18:30;;;;;;;27.25;15.00;;;13.90;66.20;;;;;;5034151;28;20025;-79
2021/03/31 00:20:56;;;;;;;26.55;15.68;;;13.90;66.30;;;;;;5051764;28;20380;-79
2021/03/31 00:23:25;;;;;;;25.88;14.30;;;13.90;66.30;;;;;;5053980;28;20036;-79
2021/03/31 00:25:52;;;;;;;23.25;13.85;;;13.80;66.60;;;;;;5037004;28;20354;-79
2021/03/31 00:28:18;;;;;;;24.48;14.27;;;13.80;66.30;;;;;;5060915;28;20048;-79
2021/03/31 00:30:47;;;;;;;26.95;14.38;;;13.80;66.80;;;;;;5054225;28;20464;-79
2021/03/31 00:33:13;;;;;;;25.17;14.40;;;13.80;66.40;;;;;;5035191;28;20032;-79
2021/03/31 00:35:40;;;;;;;25.70;13.65;;;13.70;66.40;;;;;;5048417;28;20500;-79
2021/03/31 00:38:06;;;;;;;24.92;14.32;;;13.70;66.90;;;;;;5046713;28;20214;-79
2021/03/31 00:40:39;;;;;;;29.58;17.35;;;13.70;66.90;;;;;;5058885;28;20035;-83
2021/03/31 00:43:04;;;;;;;27.88;15.65;;;13.60;67.50;;;;;;5093852;28;20024;-81
2021/03/31 00:45:30;;;;;;;24.73;13.98;;;13.60;67.30;;;;;;5095956;28;20040;-81
2021/03/31 00:47:56;;;;;;;23.75;14.68;;;13.60;67.40;;;;;;5089393;28;20029;-78
2021/03/31 00:50:22;;;;;;;27.20;15.13;;;13.50;67.50;;;;;;5038419;28;20040;-79
2021/03/31 00:52:50;;;;;;;28.50;16.02;;;13.50;67.20;;;;;;5094978;28;20016;-85
2021/03/31 00:55:18;;;;;;;28.45;14.88;;;13.40;67.70;;;;;;5085545;28;20078;-78
2021/03/31 00:57:44;;;;;;;27.73;15.95;;;13.40;68.00;;;;;;5041745;28;20502;-78
2021/03/31 01:00:11;;;;;;;26.05;15.52;;;13.40;67.90;;;;;;5051858;28;20059;-78
2021/03/31 01:02:38;;;;;;;25.67;14.65;;;13.40;67.60;;;;;;5053160;28;20025;-78
2021/03/31 01:05:24;;;;;;;26.27;15.63;;;13.30;67.60;;;;;;5036682;28;20051;-78
2021/03/31 01:07:51;;;;;;;28.88;15.05;;;13.30;68.20;;;;;;5053427;28;20021;-79
2021/03/31 01:10:19;;;;;;;28.08;17.05;;;13.20;68.20;;;;;;5053210;28;20078;-79
2021/03/31 01:13:23;;;;;;;26.63;15.52;;;13.20;68.00;;;;;;5056873;28;20029;-78
2021/03/31 01:16:07;;;;;;;27.13;14.82;;;13.20;68.20;;;;;;5066444;28;20055;-79
2021/03/31 01:18:33;;;;;;;28.13;16.25;;;13.10;68.10;;;;;;5037760;28;20377;-79
2021/03/31 01:21:19;;;;;;;30.25;16.23;;;13.10;68.40;;;;;;5074491;28;20028;-78
2021/03/31 01:24:18;;;;;;;22.80;14.68;;;13.00;68.40;;;;;;5067490;28;20114;-79
2021/03/31 01:26:59;;;;;;;24.17;15.27;;;13.00;68.40;;;;;;5056509;28;20040;-81
2021/03/31 01:29:44;;;;;;;;;;;13.00;68.80;;;;;;5047760;28;20097;-79
2021/03/31 01:32:34;;;;;;;24.20;14.15;;;12.90;68.50;;;;;;5072471;28;19958;-78
2021/03/31 01:35:11;;;;;;;26.23;15.05;;;12.80;68.20;;;;;;5073843;28;20036;-79
2021/03/31 01:37:41;;;;;;;24.55;14.48;;;12.80;68.50;;;;;;5036643;28;20551;-84
2021/03/31 01:40:10;;;;;;;23.53;13.90;;;12.70;68.80;;;;;;5049882;28;20044;-79
2021/03/31 01:42:40;;;;;;;25.13;15.07;;;12.70;69.10;;;;;;5055930;28;20070;-80
2021/03/31 01:45:08;;;;;;;24.63;14.75;;;12.70;68.80;;;;;;5054871;28;20036;-81
2021/03/31 01:47:37;;;;;;;24.70;14.98;;;12.60;69.20;;;;;;5055972;28;20427;-78
2021/03/31 01:50:06;;;;;;;24.92;14.77;;;12.60;68.60;;;;;;5055776;28;20111;-78
2021/03/31 01:52:33;;;;;;;27.83;15.70;;;12.50;68.30;;;;;;5059560;28;20051;-78
2021/03/31 01:55:00;;;;;;;26.58;15.52;;;12.50;68.20;;;;;;5055644;28;20053;-79
2021/03/31 01:57:26;;;;;;;25.92;15.55;;;12.50;69.10;;;;;;5037994;28;20028;-79
2021/03/31 01:59:53;;;;;;;30.63;16.25;;;12.40;69.10;;;;;;5053983;28;20024;-78
2021/03/31 02:02:21;;;;;;;26.10;15.52;;;12.40;69.30;;;;;;5038077;28;20029;-78
2021/03/31 02:04:48;;;;;;;26.38;15.85;;;12.30;68.90;;;;;;5053120;28;20048;-79
2021/03/31 02:07:16;;;;;;;27.80;15.57;;;12.30;69.80;;;;;;5031543;28;20028;-77
2021/03/31 02:09:44;;;;;;;26.30;15.63;;;12.20;69.70;;;;;;5073317;28;20040;-78
2021/03/31 02:12:17;;;;;;;26.75;15.20;;;12.20;70.20;;;;;;5073257;28;20024;-79
2021/03/31 02:14:46;;;;;;;26.25;15.65;;;12.20;70.20;;;;;;5054307;28;20017;-78
2021/03/31 02:17:19;;;;;;;25.63;15.10;;;12.10;70.70;;;;;;5044973;28;20031;-78
2021/03/31 02:19:47;;;;;;;25.38;14.73;;;12.10;70.40;;;;;;5072346;28;20024;-78
2021/03/31 02:22:15;;;;;;;26.13;15.93;;;12.10;70.60;;;;;;5054760;28;20139;-77
2021/03/31 02:24:43;;;;;;;27.45;15.80;;;12.00;70.70;;;;;;5053027;28;20373;-81
2021/03/31 02:27:10;;;;;;;28.90;16.13;;;12.00;70.90;;;;;;5060695;28;20544;-77
2021/03/31 02:29:36;;;;;;;26.75;15.48;;;12.00;70.90;;;;;;5059250;28;20059;-77
2021/03/31 02:32:02;;;;;;;25.85;15.20;;;12.00;70.00;;;;;;5035420;28;20025;-78
2021/03/31 02:34:30;;;;;;;26.98;16.02;;;11.90;69.30;;;;;;5047526;28;20032;-78
2021/03/31 02:36:58;;;;;;;25.33;14.23;;;11.90;70.30;;;;;;5073121;28;20123;-78
2021/03/31 02:39:25;;;;;;;31.27;16.67;;;11.90;70.80;;;;;;5055186;28;20059;-78
2021/03/31 02:41:54;;;;;;;28.40;17.40;;;11.80;71.40;;;;;;5038553;28;20535;-77
2021/03/31 02:44:21;;;;;;;29.52;16.40;;;11.80;71.50;;;;;;5064253;28;20417;-78
2021/03/31 02:46:48;;;;;;;27.13;16.20;;;11.80;71.80;;;;;;5053325;28;20489;-78
2021/03/31 02:49:15;;;;;;;28.65;16.98;;;11.80;71.80;;;;;;5038332;28;20024;-78
2021/03/31 02:51:42;;;;;;;31.02;17.35;;;11.80;72.00;;;;;;5038853;28;20021;-78
2021/03/31 02:54:09;;;;;;;27.38;16.50;;;11.70;72.10;;;;;;5038556;28;20098;-78
2021/03/31 02:56:40;;;;;;;29.25;16.63;;;11.70;71.70;;;;;;5072901;28;20085;-78
2021/03/31 02:59:06;;;;;;;27.50;16.33;;;11.70;72.30;;;;;;5040762;28;20020;-78
2021/03/31 03:01:32;;;;;;;28.33;16.80;;;11.60;72.80;;;;;;5035330;28;20457;-78
2021/03/31 03:03:58;;;;;;;29.70;16.58;;;11.60;72.60;;;;;;5066494;28;20028;-77
2021/03/31 03:06:25;;;;;;;26.92;17.50;;;11.60;72.60;;;;;;5043003;28;20090;-78
2021/03/31 03:08:54;;;;;;;30.45;18.05;;;11.60;72.90;;;;;;5054203;28;20389;-78
2021/03/31 03:11:21;;;;;;;29.50;17.38;;;11.60;72.80;;;;;;5054735;28;20115;-79
2021/03/31 03:13:48;;;;;;;27.55;16.45;;;11.50;72.90;;;;;;5037981;28;20111;-79
2021/03/31 03:16:15;;;;;;;29.85;16.98;;;11.50;73.00;;;;;;5054770;28;20074;-78
2021/03/31 03:18:41;;;;;;;26.70;17.60;;;11.40;73.00;;;;;;5072620;28;20036;-79
2021/03/31 03:21:08;;;;;;;31.30;17.83;;;11.40;73.30;;;;;;5058124;28;20024;-78
2021/03/31 03:23:35;;;;;;;26.05;16.45;;;11.40;73.20;;;;;;5050800;28;20023;-78
2021/03/31 03:26:01;;;;;;;26.75;16.98;;;11.40;72.40;;;;;;5054367;28;20041;-78
2021/03/31 03:28:29;;;;;;;27.83;17.13;;;11.30;72.80;;;;;;5040485;28;20476;-78
2021/03/31 03:30:56;;;;;;;29.77;16.50;;;11.30;72.80;;;;;;5044290;28;20122;-78
2021/03/31 03:33:24;;;;;;;29.40;17.45;;;11.20;72.90;;;;;;5053928;28;20029;-79
2021/03/31 03:35:50;;;;;;;28.10;16.70;;;11.10;72.40;;;;;;5072166;28;20032;-79
2021/03/31 03:38:16;;;;;;;27.80;17.00;;;11.10;73.00;;;;;;5071493;28;20511;-78
2021/03/31 03:40:45;;;;;;;28.05;16.63;;;11.10;73.30;;;;;;5046957;28;20033;-78
2021/03/31 03:43:14;;;;;;;27.25;15.90;;;11.00;73.50;;;;;;5018119;28;20025;-79
2021/03/31 03:45:42;;;;;;;29.23;16.48;;;11.00;73.70;;;;;;5034108;28;20493;-78
2021/03/31 03:48:08;;;;;;;31.17;18.15;;;11.00;74.10;;;;;;5046152;28;20033;-78
2021/03/31 03:50:34;;;;;;;29.70;17.77;;;11.00;74.20;;;;;;5036170;28;20021;-78
2021/03/31 03:53:00;;;;;;;29.50;17.17;;;11.00;73.80;;;;;;5034232;28;20029;-79
2021/03/31 03:55:26;;;;;;;29.13;17.23;;;10.90;73.80;;;;;;5036659;28;20037;-79
2021/03/31 03:57:53;;;;;;;30.48;17.45;;;10.90;73.40;;;;;;5054397;28;20035;-79
2021/03/31 04:00:23;;;;;;;30.73;17.00;;;10.80;73.20;;;;;;5054076;28;20024;-79
2021/03/31 04:02:55;;;;;;;30.15;18.20;;;10.80;74.10;;;;;;5047275;28;20052;-78
2021/03/31 04:05:22;;;;;;;30.95;17.27;;;10.70;74.00;;;;;;5066278;28;20049;-78
2021/03/31 04:07:48;;;;;;;28.55;16.48;;;10.70;73.30;;;;;;5048109;28;20017;-77
2021/03/31 04:10:16;;;;;;;30.15;16.00;;;10.60;72.90;;;;;;5046474;28;20503;-78
2021/03/31 04:12:42;;;;;;;29.58;16.58;;;10.60;74.20;;;;;;5039900;28;20021;-78
2021/03/31 04:15:12;;;;;;;31.05;18.00;;;10.60;73.40;;;;;;5043670;28;20037;-79
2021/03/31 04:17:40;;;;;;;28.58;17.70;;;10.50;73.60;;;;;;5051018;28;20349;-78
2021/03/31 04:20:12;;;;;;;30.65;17.13;;;10.50;74.20;;;;;;5072166;28;20126;-78
2021/03/31 04:22:38;;;;;;;31.83;18.83;;;10.50;74.60;;;;;;5042800;28;20021;-78
2021/03/31 04:25:06;;;;;;;31.80;18.73;;;10.40;75.00;;;;;;5067237;28;20035;-79
2021/03/31 04:27:32;;;;;;;28.67;17.48;;;10.40;75.00;;;;;;5062473;28;20000;-78
2021/03/31 04:29:59;;;;;;;34.47;19.30;;;10.40;75.60;;;;;;5079142;28;20021;-83
2021/03/31 04:32:26;;;;;;;32.00;17.40;;;10.40;75.40;;;;;;5057509;28;20092;-79
2021/03/31 04:34:53;;;;;;;28.63;17.75;;;10.40;75.50;;;;;;5036060;28;20025;-82
2021/03/31 04:37:19;;;;;;;30.92;18.08;;;10.30;75.20;;;;;;5053295;28;20032;-84
2021/03/31 04:39:44;;;;;;;28.92;17.38;;;10.30;75.90;;;;;;5056843;28;20060;-78
2021/03/31 04:42:11;;;;;;;34.00;18.48;;;10.30;76.20;;;;;;5056798;28;20033;-78
2021/03/31 04:44:37;;;;;;;31.30;17.55;;;10.20;74.90;;;;;;5061866;28;20029;-78
2021/03/31 04:47:03;;;;;;;34.45;18.35;;;10.20;74.80;;;;;;5037394;28;20021;-78
2021/03/31 04:49:29;;;;;;;31.65;17.15;;;10.10;74.70;;;;;;5037322;28;20024;-78
2021/03/31 04:51:55;;;;;;;30.50;17.65;;;10.10;73.40;;;;;;5051172;28;20423;-79
2021/03/31 04:54:21;;;;;;;29.98;17.08;;;10.00;73.50;;;;;;5024567;28;20083;-79
2021/03/31 04:56:46;;;;;;;31.67;17.33;;;9.90;73.80;;;;;;5037586;28;20396;-78
2021/03/31 04:59:12;;;;;;;29.50;17.08;;;9.80;74.50;;;;;;5056536;28;20098;-78
2021/03/31 05:01:38;;;;;;;29.27;17.17;;;9.80;74.60;;;;;;5040620;28;20032;-78
2021/03/31 05:04:04;;;;;;;26.13;15.77;;;9.80;75.10;;;;;;5074889;28;20032;-79
2021/03/31 05:06:30;;;;;;;29.50;17.38;;;9.80;75.60;;;;;;5074391;28;20123;-78
2021/03/31 05:08:56;;;;;;;27.88;16.50;;;9.80;75.90;;;;;;5042682;28;20688;-79
2021/03/31 05:11:21;;;;;;;29.65;17.15;;;9.70;75.80;;;;;;5057678;28;20037;-78
2021/03/31 05:13:47;;;;;;;29.38;17.08;;;9.80;76.20;;;;;;5075214;28;20494;-78
2021/03/31 05:16:13;;;;;;;29.58;16.75;;;9.80;76.80;;;;;;5051385;28;20033;-77
2021/03/31 05:18:38;;;;;;;33.10;18.45;;;9.80;77.00;;;;;;5054323;28;20467;-79
2021/03/31 05:21:04;;;;;;;30.38;17.38;;;9.80;77.20;;;;;;5037122;28;20104;-78
2021/03/31 05:23:30;;;;;;;33.25;18.40;;;9.80;76.40;;;;;;5047981;28;20405;-78
2021/03/31 05:25:55;;;;;;;30.77;17.77;;;9.80;76.80;;;;;;5019669;28;20049;-80
2021/03/31 05:28:21;;;;;;;29.77;17.27;;;9.70;76.60;;;;;;5071130;28;20028;-79
2021/03/31 05:30:47;;;;;;;37.90;19.13;;;9.70;77.00;;;;;;5055723;28;20366;-78
2021/03/31 05:33:13;;;;;;;32.08;18.00;;;9.70;77.20;;;;;;5059331;28;20033;-78
2021/03/31 05:35:38;;;;;;;29.13;18.40;;;9.70;76.40;;;;;;5019135;28;20477;-78
2021/03/31 05:38:04;;;;;;;28.90;17.27;;;9.70;76.70;;;;;;5048900;28;20035;-77
2021/03/31 05:40:32;;;;;;;32.30;18.95;;;9.70;76.90;;;;;;5060095;28;20111;-79
2021/03/31 05:42:59;;;;;;;32.30;18.95;;;9.70;77.30;;;;;;5044753;28;20116;-83
2021/03/31 05:45:26;;;;;;;31.38;18.40;;;9.70;76.90;;;;;;5053853;28;20488;-78
2021/03/31 05:47:52;;;;;;;29.33;17.33;;;9.60;77.40;;;;;;5046998;28;20519;-78
2021/03/31 05:50:18;;;;;;;31.30;18.10;;;9.70;77.80;;;;;;5037900;28;20024;-78
2021/03/31 05:52:44;;;;;;;28.70;17.25;;;9.60;77.20;;;;;;5048425;28;20029;-78
2021/03/31 05:55:12;;;;;;;31.60;17.95;;;9.60;77.60;;;;;;5036552;28;20033;-78
2021/03/31 05:57:38;;;;;;;31.75;17.98;;;9.60;77.50;;;;;;5053694;28;20025;-78
2021/03/31 06:00:10;;;;;;;30.70;17.25;;;9.60;77.70;;;;;;5056593;28;20029;-79
2021/03/31 06:02:36;;;;;;;29.73;17.15;;;9.60;78.00;;;;;;5036585;28;20074;-78
2021/03/31 06:05:03;;;;;;;31.55;18.13;;;9.60;78.30;;;;;;5064644;28;20052;-78
2021/03/31 06:07:29;;;;;;;29.63;17.65;;;9.60;78.30;;;;;;5039220;28;20115;-78
2021/03/31 06:10:15;;;;;;;30.52;16.60;;;9.70;78.70;;;;;;5056286;28;20446;-79
2021/03/31 06:12:47;;;;;;;29.45;16.70;;;9.70;78.60;;;;;;5041322;28;20021;-78
2021/03/31 06:15:32;;;;;;;26.98;16.40;;;9.70;78.30;;;;;;5073463;28;20028;-78
2021/03/31 06:18:08;;;;;;;29.02;16.40;;;9.70;78.50;;;;;;5055335;28;20461;-78
2021/03/31 06:20:58;;;;;;;26.23;15.85;;;9.80;78.70;;;;;;5073503;28;20103;-79
2021/03/31 06:26:15;;;;;;;28.60;15.90;;;9.80;78.90;;;;;;5067586;28;20040;-78
2021/03/31 06:28:41;;;;;;;26.55;16.20;;;9.90;79.20;;;;;;5070785;28;20024;-78
2021/03/31 06:31:16;;;;;;;25.50;14.98;;;9.90;79.40;;;;;;5049679;28;20050;-79
2021/03/31 06:33:47;;;;;;;27.70;16.25;;;9.90;80.00;;;;;;5065232;28;20044;-78
2021/03/31 06:36:15;;;;;;;28.33;14.88;;;10.00;79.40;;;;;;5051077;28;20762;-79
2021/03/31 06:38:47;;;;;;;27.58;15.88;;;10.00;79.40;;;;;;5054770;28;20040;-78
2021/03/31 06:41:26;;;;;;;24.13;15.05;;;10.10;79.50;;;;;;5071734;28;20029;-78
2021/03/31 06:44:21;;;;;;;24.60;14.13;;;10.10;79.40;;;;;;5058202;28;20475;-78
2021/03/31 06:46:54;;;;;;;23.70;14.30;;;10.20;79.30;;;;;;5034284;28;20032;-78
2021/03/31 06:49:20;;;;;;;21.90;13.55;;;10.20;79.10;;;;;;5070984;28;20047;-78
2021/03/31 06:51:46;;;;;;;22.20;13.27;;;10.30;79.00;;;;;;5049397;28;20041;-78
2021/03/31 06:54:20;;;;;;;20.98;12.38;;;10.30;78.60;;;;;;5048694;28;20404;-78
2021/03/31 06:56:53;;;;;;;20.05;11.82;;;10.40;78.40;;;;;;5047253;28;20085;-80
2021/03/31 06:59:30;;;;;;;18.80;11.65;;;10.50;78.20;;;;;;5037831;28;20013;-79
2021/03/31 07:01:57;;;;;;;18.85;10.88;;;10.60;78.00;;;;;;5071993;28;20024;-78
2021/03/31 07:04:23;;;;;;;18.52;11.43;;;10.60;77.60;;;;;;5065424;28;20024;-81
2021/03/31 07:07:02;;;;;;;19.60;11.63;;;10.70;77.40;;;;;;5054535;28;20094;-78
2021/03/31 07:09:28;;;;;;;19.33;11.50;;;10.80;77.20;;;;;;5038204;28;20366;-77
2021/03/31 07:11:54;;;;;;;17.90;11.40;;;10.90;76.90;;;;;;5064385;28;20108;-78
2021/03/31 07:14:21;;;;;;;18.63;10.80;;;11.00;76.80;;;;;;5054628;28;20107;-78
2021/03/31 07:16:47;;;;;;;19.48;12.07;;;11.10;76.70;;;;;;5054395;28;20025;-78
2021/03/31 07:19:14;;;;;;;23.38;13.32;;;11.20;76.40;;;;;;5054813;28;20036;-78
2021/03/31 07:21:40;;;;;;;20.40;11.27;;;11.20;75.90;;;;;;5054342;28;20032;-79
2021/03/31 07:24:07;;;;;;;20.63;12.38;;;11.30;75.40;;;;;;5054671;28;20400;-78
2021/03/31 07:26:33;;;;;;;19.27;11.25;;;11.40;75.10;;;;;;5038754;28;20500;-84
2021/03/31 07:28:59;;;;;;;20.25;11.38;;;11.50;74.70;;;;;;5043507;28;20021;-78
2021/03/31 07:31:28;;;;;;;18.90;11.55;;;11.60;74.50;;;;;;5039271;28;20044;-79
2021/03/31 07:34:21;;;;;;;16.67;10.80;;;11.70;74.40;;;;;;5072181;28;20032;-78
2021/03/31 07:36:49;;;;;;;20.60;12.02;;;11.80;74.10;;;;;;5047985;28;20033;-79
2021/03/31 07:39:21;;;;;;;17.83;10.88;;;11.90;74.00;;;;;;5044100;28;20095;-76
2021/03/31 07:41:48;;;;;;;17.70;10.85;;;12.00;73.80;;;;;;5052389;28;20064;-79
2021/03/31 07:44:21;;;;;;;19.75;11.65;;;12.00;73.60;;;;;;5030999;28;20039;-79
2021/03/31 07:46:47;;;;;;;19.30;10.75;;;12.20;73.30;;;;;;5061619;28;20036;-77
2021/03/31 07:49:15;;;;;;;26.58;12.68;;;12.30;73.00;;;;;;5072035;28;20017;-79
2021/03/31 07:51:57;;;;;;;19.02;11.63;;;12.40;71.50;;;;;;5070888;28;20074;-78
2021/03/31 07:54:23;;;;;;;20.75;12.25;;;12.50;71.50;;;;;;5060454;28;20101;-78
2021/03/31 07:56:49;;;;;;;18.13;11.38;;;12.60;71.20;;;;;;5037080;28;20128;-78
2021/03/31 07:59:18;;;;;;;21.40;11.55;;;12.70;71.00;;;;;;5043032;28;20082;-79
2021/03/31 08:01:50;;;;;;;18.05;10.88;;;12.80;70.30;;;;;;5046927;28;20499;-79
2021/03/31 08:04:21;;;;;;;20.15;11.30;;;13.00;70.60;;;;;;5052674;28;20012;-78
2021/03/31 08:06:49;;;;;;;18.55;12.50;;;13.00;70.50;;;;;;5072255;28;20413;-78
2021/03/31 08:09:19;;;;;;;18.52;11.30;;;13.20;70.40;;;;;;5044096;28;20013;-79
2021/03/31 08:11:46;;;;;;;20.77;12.05;;;13.30;70.40;;;;;;5064200;28;20107;-79
2021/03/31 08:14:14;;;;;;;16.77;11.85;;;13.40;70.10;;;;;;5086903;28;20016;-87
2021/03/31 08:16:43;;;;;;;18.83;11.13;;;13.50;69.90;;;;;;5077502;28;20020;-81
2021/03/31 08:19:32;;;;;;;20.42;11.48;;;13.60;69.90;;;;;;5089699;28;20020;-78
2021/03/31 08:22:37;;;;;;;16.17;10.73;;;13.80;69.80;;;;;;5088991;28;20032;-78
2021/03/31 08:25:24;;;;;;;16.92;10.65;;;13.90;70.10;;;;;;5080207;28;20029;-79
2021/03/31 08:27:59;;;;;;;19.13;11.73;;;14.00;69.60;;;;;;5058751;28;20048;-83
2021/03/31 08:30:25;;;;;;;17.13;10.27;;;14.20;68.90;;;;;;5056517;28;20029;-81
2021/03/31 08:32:52;;;;;;;20.13;11.27;;;14.30;69.50;;;;;;5043150;28;20025;-82
2021/03/31 08:35:20;;;;;;;16.45;10.38;;;14.40;68.70;;;;;;5036817;28;20108;-83
2021/03/31 08:37:47;;;;;;;17.83;10.55;;;14.60;68.90;;;;;;5048195;28;20107;-83
2021/03/31 08:40:14;;;;;;;19.33;11.02;;;14.70;69.50;;;;;;5044104;28;20139;-82
2021/03/31 08:42:50;;;;;;;17.90;10.60;;;14.80;69.10;;;;;;5056330;28;20039;-82
2021/03/31 08:45:42;;;;;;;20.42;10.88;;;15.00;69.40;;;;;;5055983;28;20048;-82
2021/03/31 08:48:09;;;;;;;17.85;10.90;;;15.20;68.70;;;;;;5052119;28;20044;-82
2021/03/31 08:50:38;;;;;;;16.35;10.93;;;15.30;68.20;;;;;;5056118;28;20037;-82
2021/03/31 08:53:09;;;;;;;15.50;10.80;;;15.50;68.50;;;;;;5056190;28;20035;-86
2021/03/31 08:55:38;;;;;;;19.60;11.77;;;15.60;68.10;;;;;;5043824;28;20024;-82
2021/03/31 08:58:05;;;;;;;20.35;11.35;;;15.80;67.20;;;;;;5035035;28;20055;-82
2021/03/31 09:00:40;;;;;;;15.73;10.65;;;15.90;66.10;;;;;;5047568;28;20031;-79
2021/03/31 09:03:06;;;;;;;16.67;10.52;;;16.00;66.00;;;;;;5056194;28;20052;-84
2021/03/31 09:05:32;;;;;;;16.58;10.48;;;16.20;65.80;;;;;;5019298;28;20106;-81
2021/03/31 09:07:59;;;;;;;15.90;9.00;;;16.30;65.20;;;;;;5056062;28;20556;-79
2021/03/31 09:10:25;;;;;;;16.05;9.57;;;16.40;65.40;;;;;;5074359;28;20085;-86
2021/03/31 09:12:51;;;;;;;17.02;10.32;;;16.50;65.60;;;;;;5056153;28;20027;-81
2021/03/31 09:15:17;;;;;;;14.82;9.70;;;16.60;65.30;;;;;;5055862;28;20469;-80
2021/03/31 09:17:43;;;;;;;14.63;9.55;;;16.80;65.40;;;;;;5024948;28;20111;-82
2021/03/31 09:20:12;;;;;;;15.05;8.82;;;16.90;65.30;;;;;;5055929;28;20029;-80
2021/03/31 09:22:38;;;;;;;12.85;8.50;;;17.00;65.10;;;;;;5055351;28;20033;-80
2021/03/31 09:25:13;;;;;;;15.88;9.95;;;17.10;65.10;;;;;;5036970;28;20477;-79
2021/03/31 09:27:39;;;;;;;13.63;9.43;;;17.30;63.60;;;;;;5055280;28;20131;-79
2021/03/31 09:30:08;;;;;;;13.77;9.43;;;17.40;62.80;;;;;;5055137;28;20112;-78
2021/03/31 09:32:36;;;;;;;15.63;9.82;;;17.50;63.10;;;;;;5053638;28;20012;-80
2021/03/31 09:35:13;;;;;;;14.90;9.52;;;17.60;63.20;;;;;;5046816;28;20045;-80
2021/03/31 09:37:39;;;;;;;16.08;10.25;;;17.80;62.70;;;;;;5051364;28;20025;-81
2021/03/31 09:40:06;;;;;;;16.27;9.30;;;17.90;61.90;;;;;;5072556;28;20058;-82
2021/03/31 09:42:34;;;;;;;16.23;10.02;;;18.00;61.40;;;;;;5066941;28;20053;-83
2021/03/31 09:45:03;;;;;;;17.50;10.77;;;18.10;61.30;;;;;;5051646;28;20495;-77
2021/03/31 09:47:29;;;;;;;16.30;10.32;;;18.30;60.30;;;;;;5068908;28;20040;-77
2021/03/31 09:49:56;;;;;;;19.10;11.18;;;18.40;59.60;;;;;;5067200;28;20052;-78
2021/03/31 09:52:30;;;;;;;17.38;10.30;;;18.60;59.00;;;;;;5044244;28;20043;-85
2021/03/31 09:55:16;;;;;;;17.95;10.32;;;18.70;57.80;;;;;;5065742;28;20024;-76
2021/03/31 09:57:44;;;;;;;14.00;9.10;;;18.90;57.70;;;;;;5043772;28;20036;-78
2021/03/31 10:00:14;;;;;;;16.48;10.13;;;19.00;58.00;;;;;;5048637;28;20021;-78
2021/03/31 10:02:45;;;;;;;16.05;10.25;;;19.20;57.60;;;;;;5063155;28;20083;-77
2021/03/31 10:05:17;;;;;;;15.25;10.23;;;19.30;56.90;;;;;;5072457;28;20025;-77
2021/03/31 10:07:42;;;;;;;19.70;10.90;;;19.40;56.10;;;;;;5050302;28;20028;-77
2021/03/31 10:10:09;;;;;;;17.33;10.20;;;19.60;54.90;;;;;;5073648;28;20369;-76
2021/03/31 10:12:36;;;;;;;14.90;9.73;;;19.70;54.70;;;;;;5059549;28;20045;-76
2021/03/31 10:15:11;;;;;;;14.90;10.10;;;19.90;54.60;;;;;;5049723;28;20078;-77
2021/03/31 10:17:37;;;;;;;14.93;9.15;;;20.00;55.20;;;;;;5061044;28;20016;-78
2021/03/31 10:20:08;;;;;;;13.27;8.52;;;20.10;55.00;;;;;;5068871;28;20021;-78
2021/03/31 10:22:40;;;;;;;14.88;9.50;;;20.20;55.20;;;;;;5078971;28;20017;-76
2021/03/31 10:25:21;;;;;;;16.98;10.52;;;20.30;55.40;;;;;;5075642;28;20460;-77
2021/03/31 10:27:47;;;;;;;19.08;10.10;;;20.40;54.70;;;;;;5074147;28;20117;-77
2021/03/31 10:30:31;;;;;;;15.40;10.27;;;20.60;54.10;;;;;;5069948;28;20052;-82
2021/03/31 10:32:59;;;;;;;15.95;10.05;;;20.70;53.60;;;;;;5051487;28;20074;-76
2021/03/31 10:35:53;;;;;;;16.05;9.93;;;20.80;53.90;;;;;;5057414;28;20032;-76
2021/03/31 10:41:37;;;;;;;18.10;10.90;;;21.10;53.70;;;;;;5058009;28;20044;-78
2021/03/31 10:47:07;;;;;;;16.75;10.75;;;21.40;52.90;;;;;;5058815;28;20067;-76
2021/03/31 10:49:50;;;;;;;17.40;10.80;;;21.50;50.00;;;;;;5056638;28;20035;-75
2021/03/31 10:52:35;;;;;;;16.48;10.55;;;21.70;49.70;;;;;;5060255;28;20032;-75
2021/03/31 10:55:04;;;;;;;16.98;10.32;;;21.90;49.70;;;;;;5060826;28;20048;-77
2021/03/31 10:57:29;;;;;;;17.25;11.70;;;22.00;50.10;;;;;;5074406;28;20046;-76
2021/03/31 10:59:55;;;;;;;19.48;11.75;;;22.10;49.20;;;;;;5040618;28;20460;-76
2021/03/31 11:02:21;;;;;;;18.08;12.52;;;22.30;48.40;;;;;;5055350;28;20163;-77
2021/03/31 11:04:47;;;;;;;18.40;10.98;;;22.40;47.80;;;;;;5071594;28;20111;-76
2021/03/31 11:07:12;;;;;;;15.68;10.70;;;22.50;48.20;;;;;;5071787;28;20041;-76
2021/03/31 11:09:40;;;;;;;16.92;11.63;;;22.60;48.10;;;;;;5039978;28;20032;-80
2021/03/31 11:12:06;;;;;;;15.55;10.88;;;22.80;47.30;;;;;;5053818;28;20025;-76
2021/03/31 11:14:32;;;;;;;17.13;11.13;;;22.90;47.20;;;;;;5071720;28;20024;-76
2021/03/31 11:17:03;;;;;;;18.73;12.15;;;23.00;46.10;;;;;;5054178;28;20090;-77
2021/03/31 11:19:50;;;;;;;16.00;10.63;;;23.20;45.30;;;;;;5034618;28;20116;-76
2021/03/31 11:27:44;;;;;;;15.60;10.32;;;23.50;44.00;;;;;;5055432;28;20150;-75
2021/03/31 11:30:10;;;;;;;17.10;11.05;;;23.60;44.50;;;;;;5066995;28;20133;-77
2021/03/31 11:32:36;;;;;;;15.60;10.23;;;23.80;44.70;;;;;;5038230;28;20021;-80
2021/03/31 11:35:04;;;;;;;20.55;13.35;;;23.90;44.40;;;;;;5043928;28;20025;-77
2021/03/31 11:37:29;;;;;;;18.63;12.95;;;24.00;41.10;;;;;;5057081;28;20070;-78
2021/03/31 11:39:55;;;;;;;16.70;10.70;;;24.10;42.20;;;;;;5045222;28;20123;-77
2021/03/31 11:42:21;;;;;;;16.85;11.95;;;24.20;43.20;;;;;;5027447;28;20013;-79
2021/03/31 11:44:46;;;;;;;15.30;10.77;;;24.30;42.90;;;;;;5028981;28;20490;-79
2021/03/31 11:47:12;;;;;;;16.30;10.93;;;24.50;43.20;;;;;;5024905;28;20030;-79
2021/03/31 11:49:38;;;;;;;17.20;11.95;;;24.50;42.10;;;;;;5026003;28;20389;-80
2021/03/31 11:52:03;;;;;;;21.25;13.73;;;24.60;42.20;;;;;;5019825;28;20025;-79
2021/03/31 11:54:29;;;;;;;19.35;12.60;;;24.80;40.80;;;;;;5022137;28;20477;-79
2021/03/31 11:56:55;;;;;;;17.27;11.45;;;24.80;40.10;;;;;;5061970;28;20037;-83
2021/03/31 11:59:21;;;;;;;15.73;11.05;;;24.90;40.30;;;;;;5052348;28;20124;-83
2021/03/31 12:01:48;;;;;;;16.35;11.55;;;25.10;39.90;;;;;;5044754;28;20449;-83
2021/03/31 12:04:13;;;;;;;15.98;11.20;;;25.10;40.60;;;;;;5049065;28;20071;-75
2021/03/31 12:06:39;;;;;;;19.48;11.80;;;25.30;40.40;;;;;;5028387;28;20366;-76
2021/03/31 12:09:07;;;;;;;16.70;11.30;;;25.40;40.00;;;;;;5061463;28;20029;-77
2021/03/31 12:11:32;;;;;;;20.23;13.68;;;25.40;39.40;;;;;;5028418;28;20091;-76
2021/03/31 12:13:58;;;;;;;18.92;13.88;;;25.50;38.70;;;;;;5035411;28;20395;-78
2021/03/31 12:16:24;;;;;;;17.55;12.68;;;25.60;38.80;;;;;;5051871;28;20111;-77
2021/03/31 12:18:49;;;;;;;17.27;12.77;;;25.70;38.40;;;;;;5047120;28;20048;-77
2021/03/31 12:21:15;;;;;;;18.77;14.50;;;25.80;39.20;;;;;;5024429;28;20025;-75
2021/03/31 12:23:41;;;;;;;17.27;12.60;;;25.80;38.20;;;;;;5024296;28;20036;-76
2021/03/31 12:26:07;;;;;;;15.52;11.38;;;25.90;38.50;;;;;;5048106;28;20070;-79
2021/03/31 12:28:35;;;;;;;14.95;11.88;;;26.00;39.40;;;;;;5047874;28;20104;-76
2021/03/31 12:31:04;;;;;;;17.38;10.75;;;26.00;40.00;;;;;;5047910;28;20120;-76
2021/03/31 12:33:29;;;;;;;13.45;10.32;;;26.10;40.40;;;;;;5047782;28;20117;-77
2021/03/31 12:35:55;;;;;;;15.90;11.75;;;26.20;40.50;;;;;;5050259;28;20108;-77
2021/03/31 12:38:21;;;;;;;17.55;13.60;;;26.40;40.50;;;;;;5029959;28;20470;-77
2021/03/31 12:40:47;;;;;;;20.83;16.27;;;26.50;37.50;;;;;;5039535;28;20060;-76
2021/03/31 12:43:13;;;;;;;19.02;14.23;;;26.60;36.70;;;;;;5065669;28;20048;-76
2021/03/31 12:45:39;;;;;;;21.10;15.00;;;26.60;37.80;;;;;;5034759;28;20032;-75
2021/03/31 12:48:06;;;;;;;20.42;13.95;;;26.70;37.70;;;;;;5049203;28;20461;-76
2021/03/31 12:50:33;;;;;;;19.75;15.25;;;26.70;37.80;;;;;;5068119;28;20377;-76
2021/03/31 12:53:23;;;;;;;18.33;13.02;;;26.80;37.10;;;;;;5053603;28;20025;-75